메인 페이지
METAR-TAF:

METAR-TAF

공항 :

팔랑가, 리투아니아

위도: 55-55-12N, 경도: 021-03E, 고도: 10m

현재 날씨관측

예보는 18분 전, 11:50시(UTC)에 발표되었습니다.
여러 방향의 바람 4kt
온도 21°C
습도 64%
기압 1013 hPa
시정 10km 이상
1500m 미만 상공 구름 및 적란운 없음

METAR: EYPA 241150Z VRB04KT CAVOK 21/14 Q1013

시각: 15:08 (12:08 UTC)

예보

예보는 1 시간 7분 전, 11:01시(UTC)에 발표되었습니다.
예보 대상 시간: 24일 12시부터 25일 12시까지 (UTC)
여러 방향의 바람 5kt
시정: 9000m
전환 중
24일 20시부터 24일 22시까지 (UTC)
시정: 5000m
고도 500ft 상공 구름 많음
박무
일시적
24일 22시부터 25일 06시까지 (UTC)
시정: 0600m
고도 200ft 상공
안개
전환 중
25일 06시부터 25일 07시까지 (UTC)
북서10kt
시정: 9000m
고도 1500ft 상공 구름 보통

TAF: EYPA 241101Z 2412/2512 VRB05KT 9000 NSC BECMG 2420/2422 5000 BR BKN005 TEMPO 2422/2506 0600 FG VV002 BECMG 2506/2507 31010KT 9000 NSW SCT015

4,000개 이상의 공항 관측 자료 및 예보 (METAR 및 TAF 보고).

지도상에서 검색 가능한 기상관측소가 노란 점과 빨간 점으로 표시되어 있습니다.

기상관측소 명을 보려면 표시 위로 마우스를 이동하세요.

날씨 관측과 예보를 보려면 클릭하세요.

지도 변경 : 확대하려면 엑스 표시가 있는 녹색 버튼, 축소하려면 빼기 표시가 있는 녹색 버튼, 다음 페이지의 지도를 보려면 녹색 화살표를 클릭하세요.


METAR-TAF: